Strona główna
METAR-TAF:

METAR-TAF

Lotnisko :

Port lotniczy Praga im. Václava Havla

Praga, Czechy

Szerokość geograficzna: 50-06N, Długość geograficzna: 014-15E, wysokość: 365 m

Aktualna obserwacja pogody

Raport powstał 17 minut temu, godzina 23:30 UTC
Wiatr 10 kt od południowy zachód
Temperatura 3°C
Wilgotność 81%
Ciśnienie 1020 hPa
Widzialność 10 km lub więcej
Brak chmur poniżej 1500 m i brak chmur cumulonimbus

METAR: LKPR 192330Z 23010KT CAVOK 03/M00 Q1020 NOSIG

czas: 00:47 (23:47 UTC)

Prognoza

Raport powstał 47 minut temu, godzina 23:00 UTC
Prognoza ważna od 20 godzina 00 UTC do 21 godzina 06 UTC
Wiatr 10 kt od zachodnio-południowy zachód
Widzialność 10 km lub więcej
Brak chmur poniżej 1500 m i brak chmur cumulonimbus

TAF: LKPR 192300Z 2000/2106 24010KT CAVOK

Obserwacja i prognoza pogody dla ponad 4000 lotnisk (raport METAR i TAF).

Dostępne stacje oznaczono żółtymi i czerwonymi punktami na mapie.

Najedź kursorem aby zobaczyć nazwę stacji.

Kliknij aby zobaczyć obserwacje i prognozy pogody.

Aby zmienić mapę: kliknij na zielony przycisk z czarnym krzyżykiem, aby powiększyć; na zielony przycisk z myślnikiem, aby pomniejszyć; na zielone strzałki, aby przejść do map sąsiednich.


METAR-TAF: